sensor_id;sensor_type;location;lat;lon;timestamp;temperature;humidity
16441;DHT22;8330;-33.858;151.184;2022-11-20T00:01:48;26.50;44.50
16441;DHT22;8330;-33.858;151.184;2022-11-20T00:04:19;26.20;44.30
16441;DHT22;8330;-33.858;151.184;2022-11-20T00:06:51;26.20;44.90
16441;DHT22;8330;-33.858;151.184;2022-11-20T00:09:22;26.20;45.30
16441;DHT22;8330;-33.858;151.184;2022-11-20T00:11:54;26.40;45.50
16441;DHT22;8330;-33.858;151.184;2022-11-20T00:14:25;26.50;46.10
16441;DHT22;8330;-33.858;151.184;2022-11-20T00:16:56;26.50;47.30
16441;DHT22;8330;-33.858;151.184;2022-11-20T00:19:27;26.40;46.10
16441;DHT22;8330;-33.858;151.184;2022-11-20T00:22:00;26.40;46.00
16441;DHT22;8330;-33.858;151.184;2022-11-20T00:24:30;26.40;46.30
16441;DHT22;8330;-33.858;151.184;2022-11-20T00:27:01;26.30;47.10
16441;DHT22;8330;-33.858;151.184;2022-11-20T00:29:33;26.40;47.00
16441;DHT22;8330;-33.858;151.184;2022-11-20T00:32:03;26.40;46.70
16441;DHT22;8330;-33.858;151.184;2022-11-20T00:34:34;26.50;46.70
16441;DHT22;8330;-33.858;151.184;2022-11-20T00:37:08;26.60;45.30
16441;DHT22;8330;-33.858;151.184;2022-11-20T00:39:38;26.80;46.30
16441;DHT22;8330;-33.858;151.184;2022-11-20T00:42:09;26.80;45.60
16441;DHT22;8330;-33.858;151.184;2022-11-20T00:44:40;26.60;43.90
16441;DHT22;8330;-33.858;151.184;2022-11-20T00:47:11;26.50;44.70
16441;DHT22;8330;-33.858;151.184;2022-11-20T00:49:42;26.40;43.10
16441;DHT22;8330;-33.858;151.184;2022-11-20T00:52:14;26.40;44.00
16441;DHT22;8330;-33.858;151.184;2022-11-20T00:54:45;26.30;43.20
16441;DHT22;8330;-33.858;151.184;2022-11-20T00:57:16;26.30;43.60
16441;DHT22;8330;-33.858;151.184;2022-11-20T00:59:47;26.10;43.20
16441;DHT22;8330;-33.858;151.184;2022-11-20T01:02:17;26.20;43.90
16441;DHT22;8330;-33.858;151.184;2022-11-20T01:04:48;26.30;44.50
16441;DHT22;8330;-33.858;151.184;2022-11-20T01:07:21;26.50;44.30
16441;DHT22;8330;-33.858;151.184;2022-11-20T01:09:52;26.40;44.10
16441;DHT22;8330;-33.858;151.184;2022-11-20T01:12:23;26.30;44.80
16441;DHT22;8330;-33.858;151.184;2022-11-20T01:14:54;26.70;45.70
16441;DHT22;8330;-33.858;151.184;2022-11-20T01:17:25;27.00;43.60
16441;DHT22;8330;-33.858;151.184;2022-11-20T01:19:55;26.90;43.40
16441;DHT22;8330;-33.858;151.184;2022-11-20T01:22:28;27.10;44.70
16441;DHT22;8330;-33.858;151.184;2022-11-20T01:24:59;27.30;43.40
16441;DHT22;8330;-33.858;151.184;2022-11-20T01:27:30;27.30;41.90
16441;DHT22;8330;-33.858;151.184;2022-11-20T01:30:00;27.30;41.60
16441;DHT22;8330;-33.858;151.184;2022-11-20T01:32:31;27.10;42.30
16441;DHT22;8330;-33.858;151.184;2022-11-20T01:35:02;27.10;41.60
16441;DHT22;8330;-33.858;151.184;2022-11-20T01:37:38;27.00;42.90
16441;DHT22;8330;-33.858;151.184;2022-11-20T01:40:09;27.10;40.50
16441;DHT22;8330;-33.858;151.184;2022-11-20T01:42:46;27.00;41.00
16441;DHT22;8330;-33.858;151.184;2022-11-20T01:48:50;26.80;42.20
16441;DHT22;8330;-33.858;151.184;2022-11-20T01:51:26;26.80;43.00
16441;DHT22;8330;-33.858;151.184;2022-11-20T01:54:08;26.90;42.40
16441;DHT22;8330;-33.858;151.184;2022-11-20T01:56:40;27.00;41.90
16441;DHT22;8330;-33.858;151.184;2022-11-20T01:59:16;27.00;41.70
16441;DHT22;8330;-33.858;151.184;2022-11-20T02:01:48;27.10;41.20
16441;DHT22;8330;-33.858;151.184;2022-11-20T02:04:20;27.20;41.40
16441;DHT22;8330;-33.858;151.184;2022-11-20T02:06:57;27.30;40.70
16441;DHT22;8330;-33.858;151.184;2022-11-20T02:09:31;27.50;42.10
16441;DHT22;8330;-33.858;151.184;2022-11-20T02:12:04;27.60;41.60
16441;DHT22;8330;-33.858;151.184;2022-11-20T02:14:55;27.70;42.20
16441;DHT22;8330;-33.858;151.184;2022-11-20T02:17:25;27.70;41.10
16441;DHT22;8330;-33.858;151.184;2022-11-20T02:19:56;27.70;42.00
16441;DHT22;8330;-33.858;151.184;2022-11-20T02:22:31;27.60;41.00
16441;DHT22;8330;-33.858;151.184;2022-11-20T02:25:08;27.50;41.30
16441;DHT22;8330;-33.858;151.184;2022-11-20T02:27:39;27.60;41.90
16441;DHT22;8330;-33.858;151.184;2022-11-20T02:30:11;27.90;41.90
16441;DHT22;8330;-33.858;151.184;2022-11-20T02:32:43;27.70;41.90
16441;DHT22;8330;-33.858;151.184;2022-11-20T02:35:41;27.50;42.30
16441;DHT22;8330;-33.858;151.184;2022-11-20T02:38:14;27.70;42.80
16441;DHT22;8330;-33.858;151.184;2022-11-20T02:40:47;27.70;42.80
16441;DHT22;8330;-33.858;151.184;2022-11-20T02:43:20;27.80;42.70
16441;DHT22;8330;-33.858;151.184;2022-11-20T02:45:50;27.80;43.30
16441;DHT22;8330;-33.858;151.184;2022-11-20T02:48:21;27.90;42.90
16441;DHT22;8330;-33.858;151.184;2022-11-20T02:50:53;28.10;43.80
16441;DHT22;8330;-33.858;151.184;2022-11-20T02:53:24;28.10;42.50
16441;DHT22;8330;-33.858;151.184;2022-11-20T02:55:57;27.90;43.00
16441;DHT22;8330;-33.858;151.184;2022-11-20T02:58:27;27.70;43.50
16441;DHT22;8330;-33.858;151.184;2022-11-20T03:00:58;27.80;44.10
16441;DHT22;8330;-33.858;151.184;2022-11-20T03:03:29;27.60;42.80
16441;DHT22;8330;-33.858;151.184;2022-11-20T03:06:00;27.50;44.00
16441;DHT22;8330;-33.858;151.184;2022-11-20T03:08:32;27.50;44.20
16441;DHT22;8330;-33.858;151.184;2022-11-20T03:11:08;27.60;45.60
16441;DHT22;8330;-33.858;151.184;2022-11-20T03:13:39;27.90;45.40
16441;DHT22;8330;-33.858;151.184;2022-11-20T03:16:12;27.90;44.70
16441;DHT22;8330;-33.858;151.184;2022-11-20T03:18:43;27.70;44.00
16441;DHT22;8330;-33.858;151.184;2022-11-20T03:21:15;27.80;43.40
16441;DHT22;8330;-33.858;151.184;2022-11-20T03:23:46;28.00;44.20
16441;DHT22;8330;-33.858;151.184;2022-11-20T03:26:20;28.10;41.60
16441;DHT22;8330;-33.858;151.184;2022-11-20T03:28:52;28.00;42.10
16441;DHT22;8330;-33.858;151.184;2022-11-20T03:31:25;27.90;42.20
16441;DHT22;8330;-33.858;151.184;2022-11-20T03:33:57;27.90;42.50
16441;DHT22;8330;-33.858;151.184;2022-11-20T03:36:28;27.50;42.60
16441;DHT22;8330;-33.858;151.184;2022-11-20T03:38:59;27.40;43.40
16441;DHT22;8330;-33.858;151.184;2022-11-20T03:41:37;27.70;43.20
16441;DHT22;8330;-33.858;151.184;2022-11-20T03:44:09;28.00;44.20
16441;DHT22;8330;-33.858;151.184;2022-11-20T03:46:40;27.70;43.90
16441;DHT22;8330;-33.858;151.184;2022-11-20T03:49:11;27.50;44.90
16441;DHT22;8330;-33.858;151.184;2022-11-20T03:51:43;28.00;44.80
16441;DHT22;8330;-33.858;151.184;2022-11-20T03:54:13;27.80;44.70
16441;DHT22;8330;-33.858;151.184;2022-11-20T03:56:47;27.90;45.00
16441;DHT22;8330;-33.858;151.184;2022-11-20T03:59:19;28.00;45.00
16441;DHT22;8330;-33.858;151.184;2022-11-20T04:01:50;28.30;44.90
16441;DHT22;8330;-33.858;151.184;2022-11-20T04:04:22;28.30;43.40
16441;DHT22;8330;-33.858;151.184;2022-11-20T04:06:53;28.10;43.90
16441;DHT22;8330;-33.858;151.184;2022-11-20T04:09:24;28.30;44.10
16441;DHT22;8330;-33.858;151.184;2022-11-20T04:11:58;28.40;43.20
16441;DHT22;8330;-33.858;151.184;2022-11-20T04:14:29;28.50;42.90
16441;DHT22;8330;-33.858;151.184;2022-11-20T04:16:59;28.30;43.30
16441;DHT22;8330;-33.858;151.184;2022-11-20T04:19:30;28.50;42.70
16441;DHT22;8330;-33.858;151.184;2022-11-20T04:22:01;28.70;42.90
16441;DHT22;8330;-33.858;151.184;2022-11-20T04:24:33;28.70;42.10
16441;DHT22;8330;-33.858;151.184;2022-11-20T04:27:08;28.70;41.40
16441;DHT22;8330;-33.858;151.184;2022-11-20T04:29:40;28.60;41.40
16441;DHT22;8330;-33.858;151.184;2022-11-20T04:32:11;28.60;42.50
16441;DHT22;8330;-33.858;151.184;2022-11-20T04:34:45;28.70;42.50
16441;DHT22;8330;-33.858;151.184;2022-11-20T04:37:16;28.60;41.00
16441;DHT22;8330;-33.858;151.184;2022-11-20T04:39:47;28.30;40.80
16441;DHT22;8330;-33.858;151.184;2022-11-20T04:42:20;28.40;41.20
16441;DHT22;8330;-33.858;151.184;2022-11-20T04:45:01;28.50;41.30
16441;DHT22;8330;-33.858;151.184;2022-11-20T04:47:31;28.60;40.20
16441;DHT22;8330;-33.858;151.184;2022-11-20T04:50:03;28.60;38.80
16441;DHT22;8330;-33.858;151.184;2022-11-20T04:52:37;28.80;39.90
16441;DHT22;8330;-33.858;151.184;2022-11-20T04:55:08;29.00;40.10
16441;DHT22;8330;-33.858;151.184;2022-11-20T04:57:43;29.00;39.70
16441;DHT22;8330;-33.858;151.184;2022-11-20T05:00:15;29.00;39.70
16441;DHT22;8330;-33.858;151.184;2022-11-20T05:02:47;29.00;39.50
16441;DHT22;8330;-33.858;151.184;2022-11-20T05:05:17;29.00;38.90
16441;DHT22;8330;-33.858;151.184;2022-11-20T05:07:52;28.90;39.90
16441;DHT22;8330;-33.858;151.184;2022-11-20T05:10:23;29.20;40.20
16441;DHT22;8330;-33.858;151.184;2022-11-20T05:12:58;28.90;37.00
16441;DHT22;8330;-33.858;151.184;2022-11-20T05:15:29;28.70;36.40
16441;DHT22;8330;-33.858;151.184;2022-11-20T05:18:00;28.90;37.30
16441;DHT22;8330;-33.858;151.184;2022-11-20T05:20:32;29.00;35.60
16441;DHT22;8330;-33.858;151.184;2022-11-20T05:23:04;28.70;36.10
16441;DHT22;8330;-33.858;151.184;2022-11-20T05:25:34;28.50;35.50
16441;DHT22;8330;-33.858;151.184;2022-11-20T05:28:07;28.90;36.10
16441;DHT22;8330;-33.858;151.184;2022-11-20T05:30:38;29.40;35.80
16441;DHT22;8330;-33.858;151.184;2022-11-20T05:33:09;29.80;35.10
16441;DHT22;8330;-33.858;151.184;2022-11-20T05:35:40;29.80;34.80
16441;DHT22;8330;-33.858;151.184;2022-11-20T05:38:11;30.10;35.00
16441;DHT22;8330;-33.858;151.184;2022-11-20T05:40:42;30.30;34.40
16441;DHT22;8330;-33.858;151.184;2022-11-20T05:43:14;30.30;34.00
16441;DHT22;8330;-33.858;151.184;2022-11-20T05:45:53;30.00;32.70
16441;DHT22;8330;-33.858;151.184;2022-11-20T05:48:23;29.30;33.90
16441;DHT22;8330;-33.858;151.184;2022-11-20T05:50:56;29.40;34.10
16441;DHT22;8330;-33.858;151.184;2022-11-20T05:53:28;29.90;33.90
16441;DHT22;8330;-33.858;151.184;2022-11-20T05:55:59;30.30;33.00
16441;DHT22;8330;-33.858;151.184;2022-11-20T05:58:33;30.30;32.90
16441;DHT22;8330;-33.858;151.184;2022-11-20T06:01:08;30.60;32.60
16441;DHT22;8330;-33.858;151.184;2022-11-20T06:03:40;30.50;32.40
16441;DHT22;8330;-33.858;151.184;2022-11-20T06:06:13;30.60;32.20
16441;DHT22;8330;-33.858;151.184;2022-11-20T06:08:45;30.40;32.00
16441;DHT22;8330;-33.858;151.184;2022-11-20T06:11:17;30.10;31.90
16441;DHT22;8330;-33.858;151.184;2022-11-20T06:13:50;30.00;33.00
16441;DHT22;8330;-33.858;151.184;2022-11-20T06:16:21;30.40;32.50
16441;DHT22;8330;-33.858;151.184;2022-11-20T06:18:52;30.40;31.70
16441;DHT22;8330;-33.858;151.184;2022-11-20T06:21:23;30.50;31.80
16441;DHT22;8330;-33.858;151.184;2022-11-20T06:23:54;30.70;31.20
16441;DHT22;8330;-33.858;151.184;2022-11-20T06:26:26;30.90;31.00
16441;DHT22;8330;-33.858;151.184;2022-11-20T06:28:59;30.50;31.80
16441;DHT22;8330;-33.858;151.184;2022-11-20T06:31:30;30.30;31.60
16441;DHT22;8330;-33.858;151.184;2022-11-20T06:34:05;30.10;30.40
16441;DHT22;8330;-33.858;151.184;2022-11-20T06:36:36;30.10;30.90
16441;DHT22;8330;-33.858;151.184;2022-11-20T06:39:08;30.60;31.10
16441;DHT22;8330;-33.858;151.184;2022-11-20T06:41:39;31.20;31.10
16441;DHT22;8330;-33.858;151.184;2022-11-20T06:44:11;31.80;30.20
16441;DHT22;8330;-33.858;151.184;2022-11-20T06:46:42;32.40;30.60
16441;DHT22;8330;-33.858;151.184;2022-11-20T06:49:13;32.90;29.50
16441;DHT22;8330;-33.858;151.184;2022-11-20T06:51:44;32.30;28.60
16441;DHT22;8330;-33.858;151.184;2022-11-20T06:54:15;32.00;29.60
16441;DHT22;8330;-33.858;151.184;2022-11-20T06:56:48;31.80;29.70
16441;DHT22;8330;-33.858;151.184;2022-11-20T06:59:21;31.50;31.10
16441;DHT22;8330;-33.858;151.184;2022-11-20T07:01:52;31.40;31.10
16441;DHT22;8330;-33.858;151.184;2022-11-20T07:04:23;31.10;31.70
16441;DHT22;8330;-33.858;151.184;2022-11-20T07:06:54;31.50;31.60
16441;DHT22;8330;-33.858;151.184;2022-11-20T07:09:25;31.80;30.20
16441;DHT22;8330;-33.858;151.184;2022-11-20T07:11:56;31.80;31.30
16441;DHT22;8330;-33.858;151.184;2022-11-20T07:14:28;31.40;30.90
16441;DHT22;8330;-33.858;151.184;2022-11-20T07:16:59;31.30;30.50
16441;DHT22;8330;-33.858;151.184;2022-11-20T07:19:30;31.20;31.60
16441;DHT22;8330;-33.858;151.184;2022-11-20T07:22:01;31.00;31.40
16441;DHT22;8330;-33.858;151.184;2022-11-20T07:24:32;31.00;32.00
16441;DHT22;8330;-33.858;151.184;2022-11-20T07:27:04;30.80;30.90
16441;DHT22;8330;-33.858;151.184;2022-11-20T07:29:37;30.50;30.70
16441;DHT22;8330;-33.858;151.184;2022-11-20T07:32:08;30.20;31.20
16441;DHT22;8330;-33.858;151.184;2022-11-20T07:34:39;30.10;32.20
16441;DHT22;8330;-33.858;151.184;2022-11-20T07:37:10;29.90;31.70
16441;DHT22;8330;-33.858;151.184;2022-11-20T07:39:43;29.90;32.00
16441;DHT22;8330;-33.858;151.184;2022-11-20T07:42:14;29.80;31.80
16441;DHT22;8330;-33.858;151.184;2022-11-20T07:44:48;29.70;32.20
16441;DHT22;8330;-33.858;151.184;2022-11-20T07:47:18;29.40;32.80
16441;DHT22;8330;-33.858;151.184;2022-11-20T07:49:50;29.20;33.70
16441;DHT22;8330;-33.858;151.184;2022-11-20T07:52:20;29.00;34.20
16441;DHT22;8330;-33.858;151.184;2022-11-20T07:54:51;28.30;33.70
16441;DHT22;8330;-33.858;151.184;2022-11-20T07:57:23;27.60;35.20
16441;DHT22;8330;-33.858;151.184;2022-11-20T07:59:55;27.00;36.40
16441;DHT22;8330;-33.858;151.184;2022-11-20T08:02:26;26.50;36.90
16441;DHT22;8330;-33.858;151.184;2022-11-20T08:04:57;26.30;37.50
16441;DHT22;8330;-33.858;151.184;2022-11-20T08:07:28;25.90;38.20
16441;DHT22;8330;-33.858;151.184;2022-11-20T08:09:59;25.80;38.80
16441;DHT22;8330;-33.858;151.184;2022-11-20T08:12:30;25.70;39.20
16441;DHT22;8330;-33.858;151.184;2022-11-20T08:15:20;25.50;39.80
16441;DHT22;8330;-33.858;151.184;2022-11-20T08:17:50;25.50;39.30
16441;DHT22;8330;-33.858;151.184;2022-11-20T08:20:22;25.40;39.20
16441;DHT22;8330;-33.858;151.184;2022-11-20T08:22:53;25.30;39.70
16441;DHT22;8330;-33.858;151.184;2022-11-20T08:25:28;25.20;39.60
16441;DHT22;8330;-33.858;151.184;2022-11-20T08:27:59;25.00;39.80
16441;DHT22;8330;-33.858;151.184;2022-11-20T08:30:32;25.00;40.20
16441;DHT22;8330;-33.858;151.184;2022-11-20T08:33:04;24.90;40.10
16441;DHT22;8330;-33.858;151.184;2022-11-20T08:35:36;24.80;40.30
16441;DHT22;8330;-33.858;151.184;2022-11-20T08:38:09;24.80;39.80
16441;DHT22;8330;-33.858;151.184;2022-11-20T08:40:40;24.80;40.70
16441;DHT22;8330;-33.858;151.184;2022-11-20T08:43:31;24.80;40.20
16441;DHT22;8330;-33.858;151.184;2022-11-20T08:46:05;24.80;40.60
16441;DHT22;8330;-33.858;151.184;2022-11-20T08:48:36;24.80;40.80
16441;DHT22;8330;-33.858;151.184;2022-11-20T08:51:21;24.60;40.40
16441;DHT22;8330;-33.858;151.184;2022-11-20T08:59:45;24.30;39.90
16441;DHT22;8330;-33.858;151.184;2022-11-20T09:02:18;24.30;40.00
16441;DHT22;8330;-33.858;151.184;2022-11-20T09:04:52;24.10;39.50
16441;DHT22;8330;-33.858;151.184;2022-11-20T09:07:23;24.10;40.20
16441;DHT22;8330;-33.858;151.184;2022-11-20T09:09:54;24.10;39.80
16441;DHT22;8330;-33.858;151.184;2022-11-20T09:12:24;24.00;39.80
16441;DHT22;8330;-33.858;151.184;2022-11-20T09:14:57;24.00;39.90
16441;DHT22;8330;-33.858;151.184;2022-11-20T09:17:31;24.10;40.50
16441;DHT22;8330;-33.858;151.184;2022-11-20T09:20:03;24.10;41.40
16441;DHT22;8330;-33.858;151.184;2022-11-20T09:22:33;24.00;40.80
16441;DHT22;8330;-33.858;151.184;2022-11-20T09:25:10;23.90;40.80
16441;DHT22;8330;-33.858;151.184;2022-11-20T09:27:41;23.90;40.30
16441;DHT22;8330;-33.858;151.184;2022-11-20T09:30:14;23.80;40.50
16441;DHT22;8330;-33.858;151.184;2022-11-20T09:32:50;23.80;41.30
16441;DHT22;8330;-33.858;151.184;2022-11-20T09:35:23;23.80;41.20
16441;DHT22;8330;-33.858;151.184;2022-11-20T09:37:55;23.90;41.50
16441;DHT22;8330;-33.858;151.184;2022-11-20T09:40:30;23.70;41.30
16441;DHT22;8330;-33.858;151.184;2022-11-20T09:43:04;23.60;41.10
16441;DHT22;8330;-33.858;151.184;2022-11-20T09:45:52;23.60;41.40
16441;DHT22;8330;-33.858;151.184;2022-11-20T09:48:42;23.40;41.30
16441;DHT22;8330;-33.858;151.184;2022-11-20T09:51:21;23.30;41.90
16441;DHT22;8330;-33.858;151.184;2022-11-20T09:54:05;23.30;41.30
16441;DHT22;8330;-33.858;151.184;2022-11-20T09:56:39;23.30;41.30
16441;DHT22;8330;-33.858;151.184;2022-11-20T09:59:28;23.20;41.40
16441;DHT22;8330;-33.858;151.184;2022-11-20T10:02:00;23.30;41.60
16441;DHT22;8330;-33.858;151.184;2022-11-20T10:04:34;23.30;42.10
16441;DHT22;8330;-33.858;151.184;2022-11-20T10:07:13;23.30;42.40
16441;DHT22;8330;-33.858;151.184;2022-11-20T10:09:51;23.30;41.80
16441;DHT22;8330;-33.858;151.184;2022-11-20T10:12:31;23.30;41.80
16441;DHT22;8330;-33.858;151.184;2022-11-20T10:15:15;23.20;41.30
16441;DHT22;8330;-33.858;151.184;2022-11-20T10:18:09;23.30;42.00
16441;DHT22;8330;-33.858;151.184;2022-11-20T10:20:50;23.40;41.50
16441;DHT22;8330;-33.858;151.184;2022-11-20T10:23:57;23.30;41.10
16441;DHT22;8330;-33.858;151.184;2022-11-20T10:26:41;23.30;41.90
16441;DHT22;8330;-33.858;151.184;2022-11-20T10:29:15;23.40;41.80
16441;DHT22;8330;-33.858;151.184;2022-11-20T10:31:47;23.30;41.50
16441;DHT22;8330;-33.858;151.184;2022-11-20T10:34:30;23.30;41.70
16441;DHT22;8330;-33.858;151.184;2022-11-20T10:37:09;23.10;41.70
16441;DHT22;8330;-33.858;151.184;2022-11-20T10:39:44;23.20;42.20
16441;DHT22;8330;-33.858;151.184;2022-11-20T10:42:23;23.10;42.30
16441;DHT22;8330;-33.858;151.184;2022-11-20T10:45:16;23.00;42.20
16441;DHT22;8330;-33.858;151.184;2022-11-20T10:47:49;23.00;42.40
16441;DHT22;8330;-33.858;151.184;2022-11-20T10:50:23;22.90;42.70
16441;DHT22;8330;-33.858;151.184;2022-11-20T10:52:59;22.90;42.80
16441;DHT22;8330;-33.858;151.184;2022-11-20T10:55:40;22.90;43.10
16441;DHT22;8330;-33.858;151.184;2022-11-20T10:58:16;22.90;43.30
16441;DHT22;8330;-33.858;151.184;2022-11-20T11:00:50;22.90;43.50
16441;DHT22;8330;-33.858;151.184;2022-11-20T11:03:25;22.80;43.70
16441;DHT22;8330;-33.858;151.184;2022-11-20T11:06:02;22.70;43.60
16441;DHT22;8330;-33.858;151.184;2022-11-20T11:08:37;22.70;44.20
16441;DHT22;8330;-33.858;151.184;2022-11-20T11:11:18;22.80;44.10
16441;DHT22;8330;-33.858;151.184;2022-11-20T11:13:51;22.70;44.00
16441;DHT22;8330;-33.858;151.184;2022-11-20T11:16:23;22.70;44.40
16441;DHT22;8330;-33.858;151.184;2022-11-20T11:19:05;22.70;44.70
16441;DHT22;8330;-33.858;151.184;2022-11-20T11:21:36;22.70;44.70
16441;DHT22;8330;-33.858;151.184;2022-11-20T11:24:21;22.70;45.40
16441;DHT22;8330;-33.858;151.184;2022-11-20T11:26:55;22.70;46.80
16441;DHT22;8330;-33.858;151.184;2022-11-20T11:29:27;22.70;47.10
16441;DHT22;8330;-33.858;151.184;2022-11-20T11:32:08;22.80;47.70
16441;DHT22;8330;-33.858;151.184;2022-11-20T11:34:39;22.80;47.30
16441;DHT22;8330;-33.858;151.184;2022-11-20T11:37:17;22.70;47.10
16441;DHT22;8330;-33.858;151.184;2022-11-20T11:39:51;22.70;47.60
16441;DHT22;8330;-33.858;151.184;2022-11-20T11:42:23;22.70;47.80
16441;DHT22;8330;-33.858;151.184;2022-11-20T11:44:54;22.50;47.50
16441;DHT22;8330;-33.858;151.184;2022-11-20T11:47:37;22.50;48.30
16441;DHT22;8330;-33.858;151.184;2022-11-20T11:50:18;22.50;48.50
16441;DHT22;8330;-33.858;151.184;2022-11-20T11:52:57;22.50;48.40
16441;DHT22;8330;-33.858;151.184;2022-11-20T11:55:36;22.40;49.30
16441;DHT22;8330;-33.858;151.184;2022-11-20T11:58:17;22.40;49.50
16441;DHT22;8330;-33.858;151.184;2022-11-20T12:00:58;22.30;49.60
16441;DHT22;8330;-33.858;151.184;2022-11-20T12:03:36;22.30;49.50
16441;DHT22;8330;-33.858;151.184;2022-11-20T12:06:13;22.20;49.20
16441;DHT22;8330;-33.858;151.184;2022-11-20T12:08:49;22.20;49.70
16441;DHT22;8330;-33.858;151.184;2022-11-20T12:11:30;22.20;49.50
16441;DHT22;8330;-33.858;151.184;2022-11-20T12:14:13;22.20;49.40
16441;DHT22;8330;-33.858;151.184;2022-11-20T12:16:47;22.00;49.10
16441;DHT22;8330;-33.858;151.184;2022-11-20T12:19:18;22.00;49.50
16441;DHT22;8330;-33.858;151.184;2022-11-20T12:21:55;21.90;49.50
16441;DHT22;8330;-33.858;151.184;2022-11-20T12:24:46;22.00;50.20
16441;DHT22;8330;-33.858;151.184;2022-11-20T12:27:38;21.90;49.80
16441;DHT22;8330;-33.858;151.184;2022-11-20T12:30:13;22.00;49.40
16441;DHT22;8330;-33.858;151.184;2022-11-20T12:33:12;22.00;49.10
16441;DHT22;8330;-33.858;151.184;2022-11-20T12:36:07;22.00;48.90
16441;DHT22;8330;-33.858;151.184;2022-11-20T12:39:02;21.90;49.60
16441;DHT22;8330;-33.858;151.184;2022-11-20T12:41:57;22.00;49.60
16441;DHT22;8330;-33.858;151.184;2022-11-20T12:45:41;21.90;50.30
16441;DHT22;8330;-33.858;151.184;2022-11-20T12:48:37;21.90;50.10
16441;DHT22;8330;-33.858;151.184;2022-11-20T12:51:28;21.80;50.20
16441;DHT22;8330;-33.858;151.184;2022-11-20T12:54:28;21.80;51.20
16441;DHT22;8330;-33.858;151.184;2022-11-20T12:57:05;21.80;51.00
16441;DHT22;8330;-33.858;151.184;2022-11-20T12:59:58;21.70;50.90
16441;DHT22;8330;-33.858;151.184;2022-11-20T13:14:47;21.60;50.60
16441;DHT22;8330;-33.858;151.184;2022-11-20T13:17:47;21.60;50.40
16441;DHT22;8330;-33.858;151.184;2022-11-20T13:20:20;21.60;50.40
16441;DHT22;8330;-33.858;151.184;2022-11-20T13:22:52;21.60;50.50
16441;DHT22;8330;-33.858;151.184;2022-11-20T13:25:26;21.50;50.80
16441;DHT22;8330;-33.858;151.184;2022-11-20T13:27:58;21.50;50.50
16441;DHT22;8330;-33.858;151.184;2022-11-20T13:33:08;21.30;50.90
16441;DHT22;8330;-33.858;151.184;2022-11-20T13:35:42;21.40;51.40
16441;DHT22;8330;-33.858;151.184;2022-11-20T13:38:14;21.50;51.60
16441;DHT22;8330;-33.858;151.184;2022-11-20T13:40:53;21.50;51.50
16441;DHT22;8330;-33.858;151.184;2022-11-20T13:43:33;21.50;52.30
16441;DHT22;8330;-33.858;151.184;2022-11-20T13:46:06;21.50;52.30
16441;DHT22;8330;-33.858;151.184;2022-11-20T13:48:43;21.50;53.50
16441;DHT22;8330;-33.858;151.184;2022-11-20T13:51:26;21.60;53.90
16441;DHT22;8330;-33.858;151.184;2022-11-20T13:54:22;21.50;53.60
16441;DHT22;8330;-33.858;151.184;2022-11-20T13:57:02;21.50;54.10
16441;DHT22;8330;-33.858;151.184;2022-11-20T13:59:49;21.50;54.30
16441;DHT22;8330;-33.858;151.184;2022-11-20T14:02:24;21.50;54.80
16441;DHT22;8330;-33.858;151.184;2022-11-20T14:05:00;21.50;55.00
16441;DHT22;8330;-33.858;151.184;2022-11-20T14:07:37;21.40;55.20
16441;DHT22;8330;-33.858;151.184;2022-11-20T14:10:21;21.40;55.30
16441;DHT22;8330;-33.858;151.184;2022-11-20T14:12:52;21.40;55.40
16441;DHT22;8330;-33.858;151.184;2022-11-20T14:15:28;21.40;55.40
16441;DHT22;8330;-33.858;151.184;2022-11-20T14:18:10;21.30;55.30
16441;DHT22;8330;-33.858;151.184;2022-11-20T14:20:44;21.40;55.40
16441;DHT22;8330;-33.858;151.184;2022-11-20T14:23:25;21.30;55.30
16441;DHT22;8330;-33.858;151.184;2022-11-20T14:25:57;21.30;55.30
16441;DHT22;8330;-33.858;151.184;2022-11-20T14:28:28;21.30;55.60
16441;DHT22;8330;-33.858;151.184;2022-11-20T14:30:59;21.30;55.30
16441;DHT22;8330;-33.858;151.184;2022-11-20T14:33:33;21.30;55.80
16441;DHT22;8330;-33.858;151.184;2022-11-20T14:36:15;21.30;55.30
16441;DHT22;8330;-33.858;151.184;2022-11-20T14:38:47;21.30;55.30
16441;DHT22;8330;-33.858;151.184;2022-11-20T14:41:19;21.30;56.00
16441;DHT22;8330;-33.858;151.184;2022-11-20T14:43:53;21.30;56.40
16441;DHT22;8330;-33.858;151.184;2022-11-20T14:46:25;21.30;56.10
16441;DHT22;8330;-33.858;151.184;2022-11-20T14:49:00;21.20;56.30
16441;DHT22;8330;-33.858;151.184;2022-11-20T14:51:35;21.20;55.50
16441;DHT22;8330;-33.858;151.184;2022-11-20T14:54:13;21.10;56.50
16441;DHT22;8330;-33.858;151.184;2022-11-20T14:56:54;21.00;55.80
16441;DHT22;8330;-33.858;151.184;2022-11-20T14:59:27;21.00;56.10
16441;DHT22;8330;-33.858;151.184;2022-11-20T15:02:00;21.00;55.30
16441;DHT22;8330;-33.858;151.184;2022-11-20T15:04:31;21.00;56.40
16441;DHT22;8330;-33.858;151.184;2022-11-20T15:07:04;21.00;56.20
16441;DHT22;8330;-33.858;151.184;2022-11-20T15:09:35;21.00;56.60
16441;DHT22;8330;-33.858;151.184;2022-11-20T15:12:15;20.90;56.40
16441;DHT22;8330;-33.858;151.184;2022-11-20T15:14:48;20.90;56.80
16441;DHT22;8330;-33.858;151.184;2022-11-20T15:17:19;20.90;57.10
16441;DHT22;8330;-33.858;151.184;2022-11-20T15:19:50;20.80;57.00
16441;DHT22;8330;-33.858;151.184;2022-11-20T15:22:23;20.80;57.80
16441;DHT22;8330;-33.858;151.184;2022-11-20T15:24:55;20.80;57.50
16441;DHT22;8330;-33.858;151.184;2022-11-20T15:27:26;20.70;57.90
16441;DHT22;8330;-33.858;151.184;2022-11-20T15:29:56;20.70;58.30
16441;DHT22;8330;-33.858;151.184;2022-11-20T15:32:28;20.70;58.70
16441;DHT22;8330;-33.858;151.184;2022-11-20T15:34:59;20.70;58.60
16441;DHT22;8330;-33.858;151.184;2022-11-20T15:37:32;20.70;58.70
16441;DHT22;8330;-33.858;151.184;2022-11-20T15:40:03;20.70;58.20
16441;DHT22;8330;-33.858;151.184;2022-11-20T15:42:34;20.70;59.10
16441;DHT22;8330;-33.858;151.184;2022-11-20T15:45:06;20.70;59.00
16441;DHT22;8330;-33.858;151.184;2022-11-20T15:47:38;20.70;58.60
16441;DHT22;8330;-33.858;151.184;2022-11-20T15:50:13;20.70;58.60
16441;DHT22;8330;-33.858;151.184;2022-11-20T15:52:50;20.70;58.60
16441;DHT22;8330;-33.858;151.184;2022-11-20T15:55:20;20.70;58.70
16441;DHT22;8330;-33.858;151.184;2022-11-20T15:57:51;20.70;57.90
16441;DHT22;8330;-33.858;151.184;2022-11-20T16:00:22;20.60;59.10
16441;DHT22;8330;-33.858;151.184;2022-11-20T16:02:53;20.70;58.70
16441;DHT22;8330;-33.858;151.184;2022-11-20T16:05:26;20.60;58.60
16441;DHT22;8330;-33.858;151.184;2022-11-20T16:07:59;20.70;58.00
16441;DHT22;8330;-33.858;151.184;2022-11-20T16:10:31;20.60;58.10
16441;DHT22;8330;-33.858;151.184;2022-11-20T16:13:02;20.70;57.90